DAL1152 KDEN-KLAX
Flight info
| Callsign | DAL1152 |
|---|---|
| Flight time | 1h 51m |
| Altitude | 36000 |
| Route | BAYLR6 TEHRU JASSE Q90 DNERO ANJLL4 |
| Aircraft | A320/M-SDE3FGHIRWY/LB1 |
Departure
| Time | 2026-05-06 03:04 |
|---|---|
| Airport | Denver International Airport (KDEN) |
Arrival
| Time | 2026-05-06 04:55 |
|---|---|
| Airport | Los Angeles International Airport (KLAX) |
| Time | Latitude | Longitude | Altitude | Speed | Heading |
|---|---|---|---|---|---|
| 2026-05-06 02:33 | 39.85441 | -104.67073 | 5363 ft | 0 kts | 189° |
| 2026-05-06 02:52 | 39.85444 | -104.67072 | 5366 ft | 3 kts | 189° |
| 2026-05-06 02:52 | 39.85470 | -104.67066 | 5363 ft | 4 kts | 189° |
| 2026-05-06 02:52 | 39.85497 | -104.67060 | 5364 ft | 4 kts | 189° |
| 2026-05-06 02:53 | 39.85504 | -104.67059 | 5366 ft | 0 kts | 189° |
| 2026-05-06 02:55 | 39.85504 | -104.67071 | 5363 ft | 4 kts | 272° |
| 2026-05-06 02:56 | 39.85538 | -104.67127 | 5366 ft | 9 kts | 310° |
| 2026-05-06 02:56 | 39.85570 | -104.67206 | 5364 ft | 11 kts | 289° |
| 2026-05-06 02:56 | 39.85587 | -104.67309 | 5366 ft | 12 kts | 272° |
| 2026-05-06 02:56 | 39.85590 | -104.67436 | 5365 ft | 15 kts | 274° |
| 2026-05-06 02:57 | 39.85591 | -104.67574 | 5366 ft | 16 kts | 270° |
| 2026-05-06 02:57 | 39.85593 | -104.67719 | 5366 ft | 17 kts | 271° |
| 2026-05-06 02:57 | 39.85594 | -104.67872 | 5366 ft | 17 kts | 270° |
| 2026-05-06 02:57 | 39.85594 | -104.68029 | 5366 ft | 17 kts | 270° |
| 2026-05-06 02:58 | 39.85594 | -104.68158 | 5366 ft | 9 kts | 258° |
| 2026-05-06 02:58 | 39.85544 | -104.68196 | 5364 ft | 11 kts | 189° |
| 2026-05-06 02:58 | 39.85450 | -104.68199 | 5363 ft | 13 kts | 181° |
| 2026-05-06 02:58 | 39.85357 | -104.68202 | 5364 ft | 16 kts | 185° |
| 2026-05-06 02:59 | 39.85306 | -104.68296 | 5366 ft | 14 kts | 261° |
| 2026-05-06 02:59 | 39.85264 | -104.68394 | 5365 ft | 13 kts | 198° |
| 2026-05-06 02:59 | 39.85206 | -104.68459 | 5366 ft | 10 kts | 256° |
| 2026-05-06 02:59 | 39.85203 | -104.68565 | 5364 ft | 14 kts | 268° |
| 2026-05-06 03:00 | 39.85201 | -104.68694 | 5366 ft | 15 kts | 269° |
| 2026-05-06 03:00 | 39.85200 | -104.68831 | 5363 ft | 16 kts | 268° |
| 2026-05-06 03:00 | 39.85196 | -104.68976 | 5365 ft | 16 kts | 269° |
| 2026-05-06 03:00 | 39.85195 | -104.69129 | 5366 ft | 17 kts | 270° |
| 2026-05-06 03:01 | 39.85199 | -104.69289 | 5366 ft | 18 kts | 272° |
| 2026-05-06 03:01 | 39.85199 | -104.69435 | 5366 ft | 16 kts | 270° |
| 2026-05-06 03:01 | 39.85200 | -104.69492 | 5364 ft | 0 kts | 271° |
| 2026-05-06 03:02 | 39.85201 | -104.69510 | 5366 ft | 8 kts | 272° |
| 2026-05-06 03:02 | 39.85206 | -104.69607 | 5366 ft | 12 kts | 286° |
| 2026-05-06 03:02 | 39.85274 | -104.69656 | 5364 ft | 12 kts | 357° |
| 2026-05-06 03:03 | 39.85342 | -104.69656 | 5364 ft | 11 kts | 0° |
| 2026-05-06 03:03 | 39.85556 | -104.69656 | 5367 ft | 62 kts | 360° |
| 2026-05-06 03:03 | 39.86200 | -104.69651 | 5365 ft | 121 kts | 1° |
| 2026-05-06 03:03 | 39.87205 | -104.69642 | 5365 ft | 167 kts | 360° |
| 2026-05-06 03:04 | 39.88469 | -104.69694 | 5612 ft | 193 kts | 358° |
| 2026-05-06 03:04 | 39.89897 | -104.69728 | 6125 ft | 213 kts | 359° |
| 2026-05-06 03:04 | 39.91393 | -104.69786 | 6779 ft | 228 kts | 0° |
| 2026-05-06 03:04 | 39.93082 | -104.69895 | 7101 ft | 252 kts | 359° |
| 2026-05-06 03:05 | 39.94886 | -104.70008 | 7492 ft | 272 kts | 359° |
| 2026-05-06 03:05 | 39.96813 | -104.70143 | 8178 ft | 281 kts | 354° |
| 2026-05-06 03:05 | 39.98680 | -104.70944 | 8948 ft | 287 kts | 328° |
| 2026-05-06 03:05 | 40.00141 | -104.72716 | 9738 ft | 290 kts | 302° |
| 2026-05-06 03:06 | 40.00905 | -104.75149 | 10112 ft | 294 kts | 274° |
| 2026-05-06 03:06 | 40.00720 | -104.77759 | 10976 ft | 289 kts | 251° |
| 2026-05-06 03:06 | 39.99762 | -104.80130 | 11340 ft | 309 kts | 228° |
| 2026-05-06 03:06 | 39.97957 | -104.81732 | 11783 ft | 323 kts | 202° |
| 2026-05-06 03:07 | 39.95801 | -104.82674 | 12493 ft | 329 kts | 200° |
| 2026-05-06 03:07 | 39.93612 | -104.83592 | 13209 ft | 333 kts | 201° |
| 2026-05-06 03:07 | 39.91400 | -104.84519 | 13927 ft | 336 kts | 202° |
| 2026-05-06 03:07 | 39.89158 | -104.85460 | 14577 ft | 339 kts | 202° |
| 2026-05-06 03:08 | 39.86905 | -104.86407 | 15238 ft | 342 kts | 203° |
| 2026-05-06 03:08 | 39.84635 | -104.87366 | 15897 ft | 344 kts | 203° |
| 2026-05-06 03:08 | 39.82354 | -104.88334 | 16514 ft | 346 kts | 204° |
| 2026-05-06 03:08 | 39.80170 | -104.89606 | 17143 ft | 342 kts | 217° |
| 2026-05-06 03:09 | 39.78346 | -104.91546 | 17772 ft | 337 kts | 231° |
| 2026-05-06 03:09 | 39.76983 | -104.93992 | 18387 ft | 334 kts | 245° |
| 2026-05-06 03:09 | 39.76139 | -104.96794 | 18919 ft | 334 kts | 256° |
| 2026-05-06 03:09 | 39.75507 | -104.99707 | 19454 ft | 337 kts | 256° |
| 2026-05-06 03:10 | 39.74847 | -105.02613 | 20010 ft | 340 kts | 252° |
| 2026-05-06 03:10 | 39.73926 | -105.05501 | 20546 ft | 344 kts | 249° |
| 2026-05-06 03:10 | 39.72982 | -105.08373 | 21075 ft | 347 kts | 249° |
| 2026-05-06 03:10 | 39.72032 | -105.11269 | 21593 ft | 351 kts | 249° |
| 2026-05-06 03:11 | 39.71070 | -105.14199 | 22112 ft | 354 kts | 249° |
| 2026-05-06 03:11 | 39.70098 | -105.17160 | 22626 ft | 357 kts | 249° |
| 2026-05-06 03:11 | 39.69122 | -105.20134 | 23147 ft | 361 kts | 249° |
| 2026-05-06 03:11 | 39.68131 | -105.23147 | 23626 ft | 364 kts | 249° |
| 2026-05-06 03:12 | 39.67134 | -105.26183 | 24058 ft | 367 kts | 249° |
| 2026-05-06 03:12 | 39.66133 | -105.29232 | 24458 ft | 369 kts | 249° |
| 2026-05-06 03:12 | 39.65120 | -105.32309 | 24829 ft | 372 kts | 249° |
| 2026-05-06 03:12 | 39.64097 | -105.35410 | 25221 ft | 375 kts | 249° |
| 2026-05-06 03:13 | 39.63063 | -105.38537 | 25568 ft | 378 kts | 249° |
| 2026-05-06 03:13 | 39.62025 | -105.41672 | 25970 ft | 380 kts | 249° |
| 2026-05-06 03:13 | 39.60979 | -105.44828 | 26342 ft | 382 kts | 249° |
| 2026-05-06 03:13 | 39.59926 | -105.48011 | 26720 ft | 385 kts | 249° |
| 2026-05-06 03:14 | 39.58863 | -105.51234 | 26799 ft | 392 kts | 249° |
| 2026-05-06 03:14 | 39.57776 | -105.54512 | 27032 ft | 398 kts | 248° |
| 2026-05-06 03:14 | 39.56691 | -105.57764 | 27332 ft | 400 kts | 248° |
| 2026-05-06 03:14 | 39.55579 | -105.61088 | 27626 ft | 403 kts | 248° |
| 2026-05-06 03:15 | 39.54509 | -105.64452 | 27927 ft | 404 kts | 250° |
| 2026-05-06 03:15 | 39.53524 | -105.67876 | 28202 ft | 408 kts | 252° |
| 2026-05-06 03:15 | 39.52583 | -105.71358 | 28488 ft | 410 kts | 252° |
| 2026-05-06 03:15 | 39.51657 | -105.74867 | 28786 ft | 412 kts | 252° |
| 2026-05-06 03:16 | 39.50726 | -105.78381 | 29059 ft | 414 kts | 252° |
| 2026-05-06 03:16 | 39.49774 | -105.81917 | 29308 ft | 416 kts | 252° |
| 2026-05-06 03:16 | 39.48805 | -105.85455 | 29578 ft | 418 kts | 252° |
| 2026-05-06 03:16 | 39.47821 | -105.89003 | 29820 ft | 420 kts | 251° |
| 2026-05-06 03:17 | 39.46821 | -105.92571 | 30041 ft | 422 kts | 251° |
| 2026-05-06 03:17 | 39.45816 | -105.96144 | 30255 ft | 424 kts | 251° |
| 2026-05-06 03:17 | 39.44804 | -105.99741 | 30448 ft | 425 kts | 252° |
| 2026-05-06 03:17 | 39.43790 | -106.03352 | 30605 ft | 429 kts | 252° |
| 2026-05-06 03:18 | 39.42768 | -106.06989 | 30776 ft | 431 kts | 252° |
| 2026-05-06 03:18 | 39.41746 | -106.10634 | 31001 ft | 432 kts | 252° |
| 2026-05-06 03:18 | 39.40720 | -106.14280 | 31278 ft | 431 kts | 252° |
| 2026-05-06 03:18 | 39.39694 | -106.17925 | 31565 ft | 431 kts | 252° |
| 2026-05-06 03:19 | 39.38671 | -106.21559 | 31855 ft | 430 kts | 252° |
| 2026-05-06 03:19 | 39.37645 | -106.25195 | 32141 ft | 430 kts | 252° |
| 2026-05-06 03:19 | 39.36618 | -106.28820 | 32631 ft | 430 kts | 252° |
| 2026-05-06 03:19 | 39.35590 | -106.32440 | 32935 ft | 429 kts | 252° |
| 2026-05-06 03:20 | 39.33541 | -106.39642 | 33340 ft | 432 kts | 252° |
| 2026-05-06 03:20 | 39.32503 | -106.43290 | 33561 ft | 433 kts | 252° |
| 2026-05-06 03:20 | 39.31464 | -106.46943 | 33821 ft | 433 kts | 252° |
| 2026-05-06 03:21 | 39.30424 | -106.50592 | 34070 ft | 432 kts | 252° |
| 2026-05-06 03:21 | 39.29385 | -106.54231 | 34317 ft | 431 kts | 252° |
| 2026-05-06 03:21 | 39.28346 | -106.57856 | 34579 ft | 429 kts | 252° |
| 2026-05-06 03:21 | 39.27312 | -106.61460 | 34803 ft | 427 kts | 252° |
| 2026-05-06 03:22 | 39.26278 | -106.65055 | 35066 ft | 426 kts | 251° |
| 2026-05-06 03:22 | 39.25250 | -106.68630 | 35331 ft | 424 kts | 251° |
| 2026-05-06 03:22 | 39.24051 | -106.72109 | 35563 ft | 426 kts | 243° |
| 2026-05-06 03:22 | 39.22425 | -106.75313 | 35744 ft | 428 kts | 236° |
| 2026-05-06 03:23 | 39.20649 | -106.78391 | 35908 ft | 428 kts | 235° |
| 2026-05-06 03:23 | 39.18859 | -106.81484 | 35952 ft | 431 kts | 235° |
| 2026-05-06 03:23 | 39.15239 | -106.87728 | 35822 ft | 437 kts | 235° |
| 2026-05-06 03:24 | 39.11600 | -106.94005 | 35821 ft | 437 kts | 235° |
| 2026-05-06 03:24 | 39.07983 | -107.00239 | 35821 ft | 438 kts | 235° |
| 2026-05-06 03:25 | 39.04315 | -107.06557 | 35806 ft | 438 kts | 235° |
| 2026-05-06 03:25 | 39.00653 | -107.12846 | 35791 ft | 440 kts | 235° |
| 2026-05-06 03:26 | 38.96970 | -107.19160 | 35788 ft | 441 kts | 235° |
| 2026-05-06 03:26 | 38.93305 | -107.25425 | 35780 ft | 442 kts | 235° |
| 2026-05-06 03:27 | 38.89600 | -107.31734 | 35773 ft | 443 kts | 235° |
| 2026-05-06 03:27 | 38.85899 | -107.38051 | 35764 ft | 443 kts | 235° |
| 2026-05-06 03:28 | 38.82231 | -107.44304 | 35762 ft | 445 kts | 234° |
| 2026-05-06 03:28 | 38.78452 | -107.50712 | 35738 ft | 445 kts | 234° |
| 2026-05-06 03:29 | 38.74712 | -107.57036 | 35749 ft | 446 kts | 234° |
| 2026-05-06 03:29 | 38.70970 | -107.63366 | 35743 ft | 446 kts | 234° |
| 2026-05-06 03:30 | 38.67234 | -107.69687 | 35739 ft | 445 kts | 234° |
| 2026-05-06 03:30 | 38.63484 | -107.75994 | 35707 ft | 446 kts | 234° |
| 2026-05-06 03:31 | 38.59719 | -107.82317 | 35875 ft | 447 kts | 234° |
| 2026-05-06 03:31 | 38.55947 | -107.88646 | 35890 ft | 448 kts | 234° |
| 2026-05-06 03:32 | 38.52168 | -107.94973 | 35895 ft | 448 kts | 234° |
| 2026-05-06 03:32 | 38.48398 | -108.01272 | 35896 ft | 449 kts | 234° |
| 2026-05-06 03:33 | 38.44604 | -108.07598 | 35860 ft | 449 kts | 234° |
| 2026-05-06 03:33 | 38.40832 | -108.13878 | 35828 ft | 449 kts | 234° |
| 2026-05-06 03:34 | 38.37645 | -108.19169 | 35792 ft | 449 kts | 234° |
| 2026-05-06 03:34 | 38.33865 | -108.25440 | 35729 ft | 448 kts | 234° |
| 2026-05-06 03:35 | 38.30040 | -108.31765 | 35742 ft | 447 kts | 233° |
| 2026-05-06 03:35 | 38.26243 | -108.38034 | 35742 ft | 447 kts | 233° |
| 2026-05-06 03:36 | 38.22475 | -108.44246 | 35724 ft | 447 kts | 233° |
| 2026-05-06 03:36 | 38.18677 | -108.50498 | 35711 ft | 448 kts | 233° |
| 2026-05-06 03:37 | 38.14863 | -108.56764 | 35706 ft | 448 kts | 233° |
| 2026-05-06 03:37 | 38.11040 | -108.63035 | 35698 ft | 449 kts | 233° |
| 2026-05-06 03:38 | 38.07213 | -108.69304 | 35702 ft | 450 kts | 233° |
| 2026-05-06 03:38 | 38.03377 | -108.75569 | 35711 ft | 449 kts | 233° |
| 2026-05-06 03:39 | 37.99540 | -108.81822 | 35717 ft | 450 kts | 233° |
| 2026-05-06 03:39 | 37.95694 | -108.88074 | 35722 ft | 450 kts | 233° |
| 2026-05-06 03:40 | 37.91843 | -108.94327 | 35729 ft | 450 kts | 233° |
| 2026-05-06 03:40 | 37.87984 | -109.00589 | 35733 ft | 451 kts | 233° |
| 2026-05-06 03:41 | 37.84119 | -109.06839 | 35737 ft | 451 kts | 233° |
| 2026-05-06 03:41 | 37.80250 | -109.13087 | 35739 ft | 451 kts | 233° |
| 2026-05-06 03:42 | 37.76371 | -109.19336 | 35776 ft | 452 kts | 233° |
| 2026-05-06 03:42 | 37.72488 | -109.25588 | 35831 ft | 451 kts | 233° |
| 2026-05-06 03:43 | 37.68606 | -109.31816 | 35895 ft | 450 kts | 233° |
| 2026-05-06 03:43 | 37.64733 | -109.38018 | 35946 ft | 450 kts | 233° |
| 2026-05-06 03:44 | 37.60864 | -109.44205 | 35955 ft | 449 kts | 232° |
| 2026-05-06 03:44 | 37.56992 | -109.50386 | 35941 ft | 450 kts | 232° |
| 2026-05-06 03:45 | 37.53108 | -109.56582 | 35935 ft | 451 kts | 232° |
| 2026-05-06 03:45 | 37.49216 | -109.62768 | 35890 ft | 451 kts | 232° |
| 2026-05-06 03:46 | 37.45316 | -109.68960 | 35731 ft | 452 kts | 232° |
| 2026-05-06 03:46 | 37.41413 | -109.75149 | 35742 ft | 449 kts | 232° |
| 2026-05-06 03:47 | 37.37532 | -109.81285 | 35757 ft | 448 kts | 232° |
| 2026-05-06 03:47 | 37.33671 | -109.87368 | 35752 ft | 447 kts | 232° |
| 2026-05-06 03:48 | 37.29794 | -109.93484 | 35755 ft | 447 kts | 232° |
| 2026-05-06 03:48 | 37.25917 | -109.99589 | 35753 ft | 447 kts | 232° |
| 2026-05-06 03:49 | 37.22026 | -110.05686 | 35754 ft | 447 kts | 232° |
| 2026-05-06 03:49 | 37.18135 | -110.11773 | 35762 ft | 447 kts | 232° |
| 2026-05-06 03:50 | 37.14249 | -110.17861 | 35749 ft | 448 kts | 233° |
| 2026-05-06 03:50 | 37.10342 | -110.23962 | 35749 ft | 448 kts | 232° |
| 2026-05-06 03:51 | 37.06449 | -110.30041 | 35763 ft | 447 kts | 232° |
| 2026-05-06 03:51 | 37.02555 | -110.36105 | 35787 ft | 447 kts | 232° |
| 2026-05-06 03:52 | 36.98657 | -110.42141 | 35791 ft | 446 kts | 232° |
| 2026-05-06 03:52 | 36.94761 | -110.48174 | 35792 ft | 446 kts | 232° |
| 2026-05-06 03:53 | 36.90861 | -110.54218 | 35801 ft | 447 kts | 232° |
| 2026-05-06 03:53 | 36.86949 | -110.60264 | 35797 ft | 447 kts | 232° |
| 2026-05-06 03:54 | 36.83030 | -110.66317 | 35797 ft | 448 kts | 232° |
| 2026-05-06 03:54 | 36.79101 | -110.72349 | 35816 ft | 448 kts | 231° |
| 2026-05-06 03:55 | 36.75197 | -110.78322 | 35823 ft | 447 kts | 232° |
| 2026-05-06 03:55 | 36.71284 | -110.84329 | 35822 ft | 447 kts | 232° |
| 2026-05-06 03:56 | 36.67362 | -110.90349 | 35803 ft | 447 kts | 232° |
| 2026-05-06 03:56 | 36.63435 | -110.96352 | 35803 ft | 448 kts | 231° |
| 2026-05-06 03:57 | 36.59491 | -111.02363 | 35800 ft | 448 kts | 231° |
| 2026-05-06 03:57 | 36.55545 | -111.08373 | 35817 ft | 449 kts | 231° |
| 2026-05-06 03:58 | 36.51591 | -111.14378 | 35815 ft | 449 kts | 232° |
| 2026-05-06 03:58 | 36.47621 | -111.20397 | 35799 ft | 451 kts | 232° |
| 2026-05-06 03:59 | 36.43641 | -111.26430 | 35801 ft | 452 kts | 231° |
| 2026-05-06 03:59 | 36.39650 | -111.32466 | 35814 ft | 453 kts | 231° |
| 2026-05-06 04:00 | 36.35673 | -111.38464 | 35820 ft | 453 kts | 231° |
| 2026-05-06 04:00 | 36.31661 | -111.44498 | 35834 ft | 453 kts | 231° |
| 2026-05-06 04:01 | 36.27651 | -111.50531 | 35846 ft | 453 kts | 231° |
| 2026-05-06 04:01 | 36.23644 | -111.56552 | 35863 ft | 453 kts | 231° |
| 2026-05-06 04:02 | 36.19627 | -111.62578 | 35860 ft | 453 kts | 231° |
| 2026-05-06 04:02 | 36.15608 | -111.68579 | 35875 ft | 452 kts | 231° |
| 2026-05-06 04:03 | 36.11603 | -111.74544 | 35887 ft | 450 kts | 231° |
| 2026-05-06 04:03 | 36.07707 | -111.80582 | 35957 ft | 448 kts | 238° |
| 2026-05-06 04:04 | 36.05087 | -111.87555 | 35995 ft | 448 kts | 249° |
| 2026-05-06 04:04 | 36.02815 | -111.94726 | 36043 ft | 449 kts | 249° |
| 2026-05-06 04:05 | 36.00515 | -112.01898 | 36082 ft | 449 kts | 248° |
| 2026-05-06 04:05 | 35.98211 | -112.09067 | 36102 ft | 450 kts | 248° |
| 2026-05-06 04:06 | 35.95903 | -112.16243 | 36102 ft | 451 kts | 249° |
| 2026-05-06 04:06 | 35.93582 | -112.23441 | 36097 ft | 451 kts | 249° |
| 2026-05-06 04:07 | 35.91261 | -112.30644 | 36072 ft | 452 kts | 248° |
| 2026-05-06 04:07 | 35.88923 | -112.37848 | 36044 ft | 452 kts | 248° |
| 2026-05-06 04:08 | 35.86580 | -112.45054 | 36010 ft | 452 kts | 248° |
| 2026-05-06 04:08 | 35.84248 | -112.52216 | 35940 ft | 454 kts | 248° |
| 2026-05-06 04:09 | 35.81890 | -112.59438 | 35928 ft | 455 kts | 248° |
| 2026-05-06 04:09 | 35.79521 | -112.66674 | 35928 ft | 456 kts | 248° |
| 2026-05-06 04:10 | 35.77146 | -112.73914 | 35928 ft | 456 kts | 248° |
| 2026-05-06 04:10 | 35.74771 | -112.81165 | 35925 ft | 457 kts | 248° |
| 2026-05-06 04:11 | 35.72381 | -112.88425 | 35912 ft | 458 kts | 248° |
| 2026-05-06 04:11 | 35.69975 | -112.95707 | 35912 ft | 459 kts | 249° |
| 2026-05-06 04:12 | 35.67565 | -113.02987 | 35907 ft | 460 kts | 248° |
| 2026-05-06 04:12 | 35.65151 | -113.10266 | 35934 ft | 458 kts | 248° |
| 2026-05-06 04:13 | 35.62734 | -113.17520 | 35926 ft | 458 kts | 248° |
| 2026-05-06 04:13 | 35.60315 | -113.24758 | 35914 ft | 458 kts | 248° |
| 2026-05-06 04:14 | 35.57892 | -113.32012 | 35913 ft | 458 kts | 248° |
| 2026-05-06 04:14 | 35.55467 | -113.39249 | 35904 ft | 458 kts | 248° |
| 2026-05-06 04:15 | 35.53034 | -113.46481 | 35909 ft | 458 kts | 248° |
| 2026-05-06 04:15 | 35.50599 | -113.53714 | 35900 ft | 458 kts | 248° |
| 2026-05-06 04:16 | 35.48175 | -113.60899 | 35907 ft | 459 kts | 248° |
| 2026-05-06 04:16 | 35.45731 | -113.68124 | 35928 ft | 459 kts | 248° |
| 2026-05-06 04:17 | 35.43280 | -113.75348 | 35950 ft | 459 kts | 248° |
| 2026-05-06 04:17 | 35.40820 | -113.82591 | 35957 ft | 461 kts | 248° |
| 2026-05-06 04:18 | 35.38344 | -113.89856 | 35975 ft | 463 kts | 248° |
| 2026-05-06 04:18 | 35.35853 | -113.97144 | 35991 ft | 464 kts | 248° |
| 2026-05-06 04:19 | 35.33358 | -114.04441 | 35990 ft | 464 kts | 248° |
| 2026-05-06 04:19 | 35.31278 | -114.10499 | 35971 ft | 465 kts | 249° |
| 2026-05-06 04:20 | 35.28769 | -114.17793 | 35940 ft | 466 kts | 248° |
| 2026-05-06 04:20 | 35.26248 | -114.25107 | 35911 ft | 466 kts | 248° |
| 2026-05-06 04:21 | 35.23725 | -114.32409 | 35885 ft | 467 kts | 248° |
| 2026-05-06 04:21 | 35.21191 | -114.39715 | 35863 ft | 467 kts | 248° |
| 2026-05-06 04:22 | 35.18647 | -114.47046 | 35851 ft | 469 kts | 248° |
| 2026-05-06 04:23 | 35.14810 | -114.58069 | 35893 ft | 471 kts | 248° |
| 2026-05-06 04:23 | 35.12240 | -114.65427 | 35897 ft | 471 kts | 248° |
| 2026-05-06 04:24 | 35.09675 | -114.72807 | 35898 ft | 472 kts | 248° |
| 2026-05-06 04:24 | 35.07131 | -114.80142 | 35903 ft | 472 kts | 248° |
| 2026-05-06 04:25 | 35.04574 | -114.87471 | 35889 ft | 464 kts | 248° |
| 2026-05-06 04:25 | 35.01921 | -114.94585 | 35887 ft | 457 kts | 244° |
| 2026-05-06 04:26 | 34.98957 | -115.01357 | 35890 ft | 449 kts | 242° |
| 2026-05-06 04:26 | 34.95913 | -115.08071 | 35895 ft | 455 kts | 243° |
| 2026-05-06 04:27 | 34.92908 | -115.14879 | 35903 ft | 456 kts | 243° |
| 2026-05-06 04:27 | 34.89946 | -115.21714 | 35902 ft | 456 kts | 243° |
| 2026-05-06 04:28 | 34.86984 | -115.28549 | 35904 ft | 456 kts | 243° |
| 2026-05-06 04:28 | 34.84004 | -115.35379 | 35897 ft | 457 kts | 243° |
| 2026-05-06 04:29 | 34.81012 | -115.42200 | 35900 ft | 457 kts | 243° |
| 2026-05-06 04:29 | 34.78101 | -115.49012 | 35898 ft | 457 kts | 245° |
| 2026-05-06 04:30 | 34.75491 | -115.56066 | 35896 ft | 457 kts | 248° |
| 2026-05-06 04:30 | 34.72996 | -115.63177 | 35899 ft | 457 kts | 248° |
| 2026-05-06 04:31 | 34.70439 | -115.70261 | 35888 ft | 459 kts | 247° |
| 2026-05-06 04:31 | 34.67809 | -115.77327 | 35892 ft | 460 kts | 247° |
| 2026-05-06 04:32 | 34.65165 | -115.84411 | 35893 ft | 460 kts | 246° |
| 2026-05-06 04:32 | 34.62533 | -115.91493 | 35902 ft | 460 kts | 247° |
| 2026-05-06 04:33 | 34.59923 | -115.98596 | 35893 ft | 461 kts | 248° |
| 2026-05-06 04:33 | 34.57304 | -116.05721 | 35730 ft | 462 kts | 247° |
| 2026-05-06 04:33 | 34.55980 | -116.09307 | 35148 ft | 472 kts | 247° |
| 2026-05-06 04:34 | 34.54620 | -116.12980 | 34768 ft | 479 kts | 247° |
| 2026-05-06 04:34 | 34.53248 | -116.16681 | 34424 ft | 484 kts | 247° |
| 2026-05-06 04:34 | 34.51863 | -116.20408 | 34081 ft | 484 kts | 247° |
| 2026-05-06 04:34 | 34.50482 | -116.24127 | 33658 ft | 483 kts | 247° |
| 2026-05-06 04:35 | 34.49100 | -116.27846 | 33179 ft | 487 kts | 247° |
| 2026-05-06 04:35 | 34.47700 | -116.31605 | 32677 ft | 492 kts | 247° |
| 2026-05-06 04:35 | 34.46283 | -116.35410 | 32172 ft | 498 kts | 247° |
| 2026-05-06 04:35 | 34.44845 | -116.39262 | 31729 ft | 504 kts | 247° |
| 2026-05-06 04:36 | 34.43390 | -116.43154 | 31279 ft | 510 kts | 247° |
| 2026-05-06 04:36 | 34.41914 | -116.47099 | 30835 ft | 520 kts | 247° |
| 2026-05-06 04:36 | 34.40407 | -116.51039 | 30414 ft | 525 kts | 246° |
| 2026-05-06 04:36 | 34.38805 | -116.55028 | 29982 ft | 529 kts | 245° |
| 2026-05-06 04:37 | 34.37145 | -116.59017 | 29451 ft | 526 kts | 244° |
| 2026-05-06 04:37 | 34.35494 | -116.62909 | 28960 ft | 514 kts | 244° |
| 2026-05-06 04:37 | 34.33874 | -116.66717 | 28468 ft | 504 kts | 244° |
| 2026-05-06 04:37 | 34.32305 | -116.70450 | 27983 ft | 494 kts | 244° |
| 2026-05-06 04:38 | 34.30794 | -116.74143 | 27502 ft | 486 kts | 245° |
| 2026-05-06 04:38 | 34.29332 | -116.77783 | 26985 ft | 475 kts | 245° |
| 2026-05-06 04:38 | 34.27919 | -116.81339 | 26447 ft | 463 kts | 245° |
| 2026-05-06 04:38 | 34.26545 | -116.84802 | 25921 ft | 452 kts | 245° |
| 2026-05-06 04:39 | 34.25191 | -116.88198 | 25409 ft | 444 kts | 245° |
| 2026-05-06 04:39 | 34.23847 | -116.91546 | 24908 ft | 441 kts | 245° |
| 2026-05-06 04:39 | 34.22505 | -116.94864 | 24405 ft | 437 kts | 245° |
| 2026-05-06 04:39 | 34.21203 | -116.98163 | 23895 ft | 433 kts | 249° |
| 2026-05-06 04:40 | 34.20224 | -117.01575 | 23361 ft | 428 kts | 253° |
| 2026-05-06 04:40 | 34.19310 | -117.04975 | 22759 ft | 425 kts | 253° |
| 2026-05-06 04:40 | 34.18399 | -117.08352 | 22164 ft | 422 kts | 253° |
| 2026-05-06 04:40 | 34.17496 | -117.11681 | 21531 ft | 410 kts | 253° |
| 2026-05-06 04:41 | 34.16618 | -117.14905 | 20917 ft | 399 kts | 253° |
| 2026-05-06 04:41 | 34.15767 | -117.18013 | 20312 ft | 391 kts | 253° |
| 2026-05-06 04:41 | 34.14902 | -117.21160 | 19768 ft | 390 kts | 253° |
| 2026-05-06 04:41 | 34.14060 | -117.24218 | 19254 ft | 388 kts | 253° |
| 2026-05-06 04:42 | 34.13211 | -117.27296 | 18865 ft | 383 kts | 253° |
| 2026-05-06 04:42 | 34.12370 | -117.30334 | 18440 ft | 380 kts | 253° |
| 2026-05-06 04:42 | 34.11542 | -117.33328 | 17800 ft | 372 kts | 253° |
| 2026-05-06 04:42 | 34.10728 | -117.36274 | 16915 ft | 368 kts | 253° |
| 2026-05-06 04:43 | 34.09937 | -117.39199 | 16075 ft | 364 kts | 255° |
| 2026-05-06 04:43 | 34.09202 | -117.42086 | 15397 ft | 356 kts | 255° |
| 2026-05-06 04:43 | 34.08506 | -117.44910 | 14800 ft | 347 kts | 256° |
| 2026-05-06 04:43 | 34.07832 | -117.47655 | 14357 ft | 334 kts | 256° |
| 2026-05-06 04:44 | 34.07177 | -117.50324 | 13938 ft | 332 kts | 256° |
| 2026-05-06 04:44 | 34.06508 | -117.53021 | 13380 ft | 338 kts | 255° |
| 2026-05-06 04:44 | 34.05825 | -117.55725 | 12871 ft | 338 kts | 255° |
| 2026-05-06 04:44 | 34.05132 | -117.58443 | 12363 ft | 339 kts | 255° |
| 2026-05-06 04:45 | 34.04435 | -117.61156 | 11851 ft | 339 kts | 255° |
| 2026-05-06 04:45 | 34.03734 | -117.63874 | 11343 ft | 340 kts | 255° |
| 2026-05-06 04:45 | 34.03038 | -117.66577 | 10880 ft | 338 kts | 255° |
| 2026-05-06 04:45 | 34.02354 | -117.69282 | 10565 ft | 332 kts | 257° |
| 2026-05-06 04:46 | 34.01990 | -117.71960 | 10440 ft | 316 kts | 266° |
| 2026-05-06 04:46 | 34.01743 | -117.74537 | 10103 ft | 303 kts | 266° |
| 2026-05-06 04:46 | 34.01499 | -117.77062 | 9840 ft | 305 kts | 265° |
| 2026-05-06 04:46 | 34.01255 | -117.79580 | 9412 ft | 301 kts | 265° |
| 2026-05-06 04:47 | 34.01016 | -117.82036 | 9045 ft | 297 kts | 265° |
| 2026-05-06 04:47 | 34.00774 | -117.84527 | 8677 ft | 295 kts | 265° |
| 2026-05-06 04:47 | 34.00534 | -117.86975 | 8307 ft | 292 kts | 264° |
| 2026-05-06 04:47 | 34.00298 | -117.89361 | 7949 ft | 289 kts | 264° |
| 2026-05-06 04:48 | 34.00057 | -117.91775 | 7547 ft | 284 kts | 264° |
| 2026-05-06 04:48 | 33.99827 | -117.94084 | 7213 ft | 270 kts | 264° |
| 2026-05-06 04:48 | 33.99614 | -117.96236 | 6896 ft | 256 kts | 264° |
| 2026-05-06 04:48 | 33.99408 | -117.98338 | 6583 ft | 242 kts | 264° |
| 2026-05-06 04:49 | 33.99216 | -118.00278 | 6293 ft | 235 kts | 264° |
| 2026-05-06 04:49 | 33.99025 | -118.02220 | 5986 ft | 231 kts | 264° |
| 2026-05-06 04:49 | 33.98836 | -118.04129 | 5698 ft | 228 kts | 263° |
| 2026-05-06 04:49 | 33.98649 | -118.06016 | 5419 ft | 226 kts | 263° |
| 2026-05-06 04:50 | 33.98463 | -118.07888 | 5131 ft | 224 kts | 263° |
| 2026-05-06 04:50 | 33.98276 | -118.09769 | 5003 ft | 223 kts | 263° |
| 2026-05-06 04:50 | 33.98092 | -118.11620 | 4767 ft | 222 kts | 263° |
| 2026-05-06 04:50 | 33.97911 | -118.13435 | 4493 ft | 220 kts | 263° |
| 2026-05-06 04:51 | 33.97728 | -118.15267 | 4199 ft | 220 kts | 263° |
| 2026-05-06 04:51 | 33.97545 | -118.17088 | 3909 ft | 218 kts | 263° |
| 2026-05-06 04:51 | 33.97363 | -118.18905 | 3612 ft | 218 kts | 263° |
| 2026-05-06 04:51 | 33.97182 | -118.20716 | 3329 ft | 217 kts | 263° |
| 2026-05-06 04:52 | 33.97000 | -118.22518 | 3043 ft | 217 kts | 263° |
| 2026-05-06 04:52 | 33.96819 | -118.24320 | 2765 ft | 216 kts | 263° |
| 2026-05-06 04:52 | 33.96638 | -118.26121 | 2462 ft | 216 kts | 263° |
| 2026-05-06 04:52 | 33.96457 | -118.27913 | 2171 ft | 215 kts | 263° |
| 2026-05-06 04:53 | 33.96277 | -118.29692 | 1882 ft | 212 kts | 262° |
| 2026-05-06 04:53 | 33.96103 | -118.31411 | 1597 ft | 201 kts | 262° |
| 2026-05-06 04:53 | 33.95939 | -118.33030 | 1339 ft | 189 kts | 262° |
| 2026-05-06 04:53 | 33.95785 | -118.34552 | 1110 ft | 177 kts | 262° |
| 2026-05-06 04:54 | 33.95640 | -118.35975 | 856 ft | 165 kts | 262° |
| 2026-05-06 04:54 | 33.95504 | -118.37311 | 674 ft | 156 kts | 262° |
| 2026-05-06 04:54 | 33.95369 | -118.38607 | 454 ft | 155 kts | 260° |
| 2026-05-06 04:54 | 33.95241 | -118.39895 | 234 ft | 154 kts | 262° |
| 2026-05-06 04:55 | 33.95112 | -118.41117 | 125 ft | 131 kts | 262° |
| 2026-05-06 04:55 | 33.95034 | -118.41877 | 123 ft | 60 kts | 262° |
| 2026-05-06 04:55 | 33.94990 | -118.42292 | 121 ft | 44 kts | 262° |
| 2026-05-06 04:55 | 33.94934 | -118.42550 | 126 ft | 24 kts | 241° |
| 2026-05-06 04:56 | 33.94856 | -118.42671 | 124 ft | 13 kts | 226° |
| 2026-05-06 04:56 | 33.94846 | -118.42683 | 123 ft | 0 kts | 226° |
| 2026-05-06 04:56 | 33.94845 | -118.42685 | 123 ft | 2 kts | 226° |
| 2026-05-06 04:57 | 33.94798 | -118.42733 | 123 ft | 12 kts | 213° |
| 2026-05-06 04:57 | 33.94705 | -118.42774 | 122 ft | 16 kts | 185° |
| 2026-05-06 04:57 | 33.94638 | -118.42687 | 126 ft | 18 kts | 84° |
| 2026-05-06 04:57 | 33.94654 | -118.42537 | 126 ft | 17 kts | 84° |
| 2026-05-06 04:58 | 33.94668 | -118.42399 | 126 ft | 16 kts | 83° |
| 2026-05-06 04:58 | 33.94680 | -118.42271 | 126 ft | 15 kts | 84° |
| 2026-05-06 04:58 | 33.94693 | -118.42154 | 124 ft | 15 kts | 82° |
| 2026-05-06 04:58 | 33.94705 | -118.42030 | 124 ft | 14 kts | 83° |
| 2026-05-06 04:59 | 33.94717 | -118.41916 | 124 ft | 13 kts | 83° |
| 2026-05-06 04:59 | 33.94732 | -118.41744 | 122 ft | 29 kts | 83° |
| 2026-05-06 04:59 | 33.94759 | -118.41497 | 123 ft | 31 kts | 82° |
| 2026-05-06 04:59 | 33.94794 | -118.41302 | 124 ft | 17 kts | 78° |
| 2026-05-06 05:00 | 33.94807 | -118.41167 | 124 ft | 15 kts | 82° |
| 2026-05-06 05:00 | 33.94821 | -118.41045 | 124 ft | 14 kts | 83° |
| 2026-05-06 05:00 | 33.94831 | -118.40932 | 123 ft | 13 kts | 83° |
| 2026-05-06 05:00 | 33.94841 | -118.40830 | 126 ft | 12 kts | 83° |
| 2026-05-06 05:01 | 33.94851 | -118.40728 | 124 ft | 13 kts | 83° |
| 2026-05-06 05:01 | 33.94859 | -118.40636 | 126 ft | 9 kts | 93° |
| 2026-05-06 05:01 | 33.94817 | -118.40594 | 123 ft | 8 kts | 167° |
| 2026-05-06 05:01 | 33.94763 | -118.40582 | 122 ft | 8 kts | 172° |
| 2026-05-06 05:02 | 33.94704 | -118.40581 | 126 ft | 8 kts | 195° |
| 2026-05-06 05:02 | 33.94682 | -118.40629 | 124 ft | 6 kts | 253° |
| 2026-05-06 05:02 | 33.94679 | -118.40641 | 126 ft | 0 kts | 253° |
| 2026-05-06 05:02 | 33.94679 | -118.40644 | 126 ft | 0 kts | 258° |